Fribourg, Switzerland
Current Conditions -  °F | °C
As of 6:50 AM on Sunday 23 Nov 2014 (Local Time) from LSMP Reporting Station
Moderate Fog Moderate Fog  
Wind Chill: 35°   Ceiling: 100
Heat Index: 39°   Visibility: 0.5mi
Dew Point: 39°   Wind: 6mph
Humidity: 100%   Direction: 190°S
Pressure: 30.18"   Gusts: NA
Location:  46.81°N, 7.14°E
Report Text: LSMP 230550Z AUTO 19005KT 0800NDV R05/1000N R23/1400N FG VV001 04/04 Q1022 RMK RED
Loading
Personal Weather Stations






























Interactive Weather Map New forecast layout! Learn more

10-Day Weather Forecast

Advertisements
Track Severe Weather on mobile